createdAt,value
2023-07-29T00:00:55.245Z,247.28
2023-07-29T00:01:55.340Z,246.85
2023-07-29T00:02:55.337Z,245.86
2023-07-29T00:03:55.476Z,246.12
2023-07-29T00:04:55.424Z,245.95
2023-07-29T00:05:55.480Z,243.71
2023-07-29T00:06:55.535Z,242.68
2023-07-29T00:07:56.236Z,244.95
2023-07-29T00:08:55.630Z,244.80
2023-07-29T00:09:55.703Z,241.05
2023-07-29T00:10:55.726Z,241.16
2023-07-29T00:11:55.772Z,240.88
2023-07-29T00:12:55.831Z,243.20
2023-07-29T00:13:55.894Z,243.89
2023-07-29T00:14:55.933Z,243.50
2023-07-29T00:15:55.984Z,239.99
2023-07-29T00:16:56.101Z,239.27
2023-07-29T00:17:56.165Z,234.31
2023-07-29T00:18:56.138Z,231.72
2023-07-29T00:19:56.218Z,232.77
2023-07-29T00:20:56.286Z,230.73
2023-07-29T00:21:56.311Z,231.48
2023-07-29T00:22:56.360Z,230.28
2023-07-29T00:23:56.439Z,232.35
2023-07-29T00:24:56.446Z,232.32
2023-07-29T00:25:56.507Z,229.37
2023-07-29T00:26:56.591Z,229.62
2023-07-29T00:27:56.692Z,231.06
2023-07-29T00:28:56.695Z,231.65
2023-07-29T00:29:56.699Z,230.89
2023-07-29T00:30:56.733Z,229.93
2023-07-29T00:31:56.789Z,227.21
2023-07-29T00:32:56.751Z,227.87
2023-07-29T00:33:56.759Z,225.63
2023-07-29T00:34:56.811Z,228.02
2023-07-29T00:35:56.866Z,226.48
2023-07-29T00:36:56.946Z,228.10
2023-07-29T00:37:57.013Z,226.72
2023-07-29T00:38:57.021Z,228.40
2023-07-29T00:39:57.090Z,226.75
2023-07-29T00:40:57.265Z,225.00
2023-07-29T00:41:57.189Z,221.62
2023-07-29T00:42:57.258Z,220.47
2023-07-29T00:43:57.306Z,218.15
2023-07-29T00:44:57.352Z,221.98
2023-07-29T00:45:57.514Z,223.81
2023-07-29T00:46:57.482Z,228.47
2023-07-29T00:47:57.556Z,231.33
2023-07-29T00:48:57.545Z,230.96
2023-07-29T00:49:57.547Z,232.39
2023-07-29T00:50:57.556Z,233.92
2023-07-29T00:51:57.603Z,236.89
2023-07-29T00:52:57.725Z,238.74
2023-07-29T00:53:57.748Z,240.31
2023-07-29T00:54:57.790Z,237.36
2023-07-29T00:55:57.833Z,236.86
2023-07-29T00:56:57.869Z,238.80
2023-07-29T00:57:57.945Z,237.88
2023-07-29T00:58:58.020Z,237.67
2023-07-29T00:59:58.087Z,237.81
2023-07-29T01:00:58.109Z,239.80
2023-07-29T01:01:58.207Z,239.82
2023-07-29T01:02:58.269Z,237.94
2023-07-29T01:03:58.471Z,239.65
2023-07-29T01:04:58.328Z,240.97
2023-07-29T01:05:58.423Z,241.53
2023-07-29T01:06:58.455Z,243.05
2023-07-29T01:07:58.513Z,243.08
2023-07-29T01:08:58.576Z,244.74
2023-07-29T01:09:58.646Z,244.12
2023-07-29T01:10:58.710Z,242.69
2023-07-29T01:11:58.765Z,242.73
2023-07-29T01:12:58.820Z,241.50
2023-07-29T01:13:58.858Z,241.61
2023-07-29T01:14:58.927Z,241.56
2023-07-29T01:15:58.981Z,242.13
2023-07-29T01:16:59.044Z,242.58
2023-07-29T01:17:59.113Z,244.06
2023-07-29T01:18:59.168Z,243.72
2023-07-29T01:19:59.239Z,244.84
2023-07-29T01:20:59.273Z,245.23
2023-07-29T01:21:59.321Z,244.96
2023-07-29T01:22:59.410Z,246.90
2023-07-29T01:23:59.476Z,244.71
2023-07-29T01:24:59.536Z,244.16
2023-07-29T01:25:59.603Z,240.11
2023-07-29T01:26:59.628Z,237.68
2023-07-29T01:27:59.718Z,240.19
2023-07-29T01:28:59.788Z,238.87
2023-07-29T01:29:59.842Z,236.71
2023-07-29T01:30:59.891Z,233.42
2023-07-29T01:31:59.962Z,232.13
2023-07-29T01:33:00.091Z,235.19
2023-07-29T01:34:00.069Z,235.40
2023-07-29T01:35:00.152Z,233.11
2023-07-29T01:36:00.218Z,233.24
2023-07-29T01:37:02.682Z,231.17
2023-07-29T01:38:00.234Z,233.38
2023-07-29T01:39:00.268Z,230.76
2023-07-29T01:40:00.249Z,228.21
2023-07-29T01:41:00.252Z,225.77
2023-07-29T01:42:00.226Z,224.71
2023-07-29T01:43:00.237Z,224.71
2023-07-29T01:44:00.222Z,223.24
2023-07-29T01:45:00.227Z,220.22
2023-07-29T01:46:00.238Z,220.98
2023-07-29T01:47:00.324Z,225.08
2023-07-29T01:48:00.236Z,224.91
2023-07-29T01:49:00.232Z,223.25
2023-07-29T01:50:00.194Z,224.17
2023-07-29T01:51:00.205Z,223.77
2023-07-29T01:52:00.183Z,223.75
2023-07-29T01:53:00.188Z,225.89
2023-07-29T01:54:00.173Z,225.29
2023-07-29T01:55:00.171Z,225.19
2023-07-29T01:56:00.150Z,223.29
2023-07-29T01:57:00.153Z,224.37
2023-07-29T01:58:00.156Z,220.71
2023-07-29T01:59:00.156Z,220.45
2023-07-29T02:00:00.130Z,223.71
2023-07-29T02:01:00.139Z,223.86
2023-07-29T02:02:00.137Z,221.59
2023-07-29T02:03:00.169Z,217.85
2023-07-29T02:04:00.197Z,218.21
2023-07-29T02:05:00.118Z,216.93
2023-07-29T02:06:00.115Z,217.09
2023-07-29T02:07:00.086Z,213.39
2023-07-29T02:08:00.112Z,214.57
2023-07-29T02:09:00.077Z,216.65
2023-07-29T02:10:00.068Z,217.11
2023-07-29T02:11:00.054Z,214.72
2023-07-29T02:12:00.074Z,215.13
2023-07-29T02:13:00.082Z,213.83
2023-07-29T02:14:00.044Z,216.36
2023-07-29T02:15:00.168Z,215.76
2023-07-29T02:16:00.188Z,215.71
2023-07-29T02:17:00.266Z,212.27
2023-07-29T02:18:00.863Z,218.52
2023-07-29T02:19:00.377Z,221.94
2023-07-29T02:20:00.470Z,225.56
2023-07-29T02:21:00.521Z,228.72
2023-07-29T02:22:00.538Z,229.88
2023-07-29T02:23:00.621Z,231.03
2023-07-29T02:24:00.704Z,232.39
2023-07-29T02:25:00.728Z,235.10
2023-07-29T02:26:00.850Z,236.32
2023-07-29T02:27:00.881Z,237.27
2023-07-29T02:28:00.942Z,236.35
2023-07-29T02:29:00.973Z,236.86
2023-07-29T02:30:01.043Z,237.88
2023-07-29T02:31:01.126Z,236.36
2023-07-29T02:32:01.168Z,237.83
2023-07-29T02:33:01.318Z,240.17
2023-07-29T02:34:01.300Z,240.29
2023-07-29T02:35:01.366Z,240.58
2023-07-29T02:36:01.439Z,241.56
2023-07-29T02:37:01.476Z,241.26
2023-07-29T02:38:01.522Z,243.34
2023-07-29T02:39:01.592Z,243.95
2023-07-29T02:40:01.628Z,245.90
2023-07-29T02:41:01.690Z,247.63
2023-07-29T02:42:01.766Z,250.00
2023-07-29T02:43:01.828Z,248.61
2023-07-29T02:44:01.858Z,247.56
2023-07-29T02:45:01.949Z,246.02
2023-07-29T02:46:01.999Z,247.22
2023-07-29T02:47:02.120Z,246.97
2023-07-29T02:48:02.119Z,247.46
2023-07-29T02:49:02.173Z,245.57
2023-07-29T02:50:02.223Z,247.88
2023-07-29T02:51:02.283Z,245.10
2023-07-29T02:52:02.372Z,244.32
2023-07-29T02:53:02.385Z,245.32
2023-07-29T02:54:02.433Z,244.43
2023-07-29T02:55:02.536Z,247.45
2023-07-29T02:56:02.592Z,247.76
2023-07-29T02:57:02.639Z,249.69
2023-07-29T02:58:02.674Z,247.55
2023-07-29T02:59:02.741Z,248.98
2023-07-29T03:00:02.762Z,248.87
2023-07-29T03:01:02.865Z,249.77
2023-07-29T03:02:02.842Z,246.56
2023-07-29T03:03:02.993Z,245.96
2023-07-29T03:04:02.976Z,241.68
2023-07-29T03:05:03.002Z,240.28
2023-07-29T03:06:03.010Z,238.99
2023-07-29T03:07:03.091Z,238.79
2023-07-29T03:08:03.141Z,234.35
2023-07-29T03:09:03.198Z,233.49
2023-07-29T03:10:03.328Z,232.11
2023-07-29T03:11:03.273Z,233.59
2023-07-29T03:12:03.339Z,230.42
2023-07-29T03:13:03.358Z,227.76
2023-07-29T03:14:03.397Z,232.89
2023-07-29T03:15:03.468Z,231.61
2023-07-29T03:16:03.520Z,232.76
2023-07-29T03:17:03.667Z,234.28
2023-07-29T03:18:03.634Z,234.08
2023-07-29T03:19:03.611Z,238.24
2023-07-29T03:20:03.644Z,238.91
2023-07-29T03:21:03.680Z,239.43
2023-07-29T03:22:03.723Z,240.03
2023-07-29T03:23:03.766Z,240.20
2023-07-29T03:24:03.818Z,241.43
2023-07-29T03:25:03.887Z,243.25
2023-07-29T03:26:03.914Z,247.83
2023-07-29T03:27:03.964Z,249.84
2023-07-29T03:28:04.064Z,250.00
2023-07-29T03:29:04.083Z,249.53
2023-07-29T03:30:04.151Z,249.00
2023-07-29T03:31:04.175Z,250.00
2023-07-29T03:32:04.184Z,248.80
2023-07-29T03:33:04.264Z,250.00
2023-07-29T03:34:04.268Z,248.17
2023-07-29T03:35:04.322Z,249.26
2023-07-29T03:36:04.352Z,247.48
2023-07-29T03:37:04.378Z,247.93
2023-07-29T03:38:04.428Z,247.94
2023-07-29T03:39:04.433Z,248.68
2023-07-29T03:40:05.576Z,245.88
2023-07-29T03:41:04.578Z,246.61
2023-07-29T03:42:04.578Z,244.15
2023-07-29T03:43:04.607Z,243.20
2023-07-29T03:44:04.661Z,243.05
2023-07-29T03:45:04.691Z,241.96
2023-07-29T03:46:04.790Z,243.77
2023-07-29T03:47:04.737Z,240.35
2023-07-29T03:48:04.853Z,237.43
2023-07-29T03:49:04.810Z,236.88
2023-07-29T03:50:04.825Z,235.12
2023-07-29T03:51:04.892Z,233.86
2023-07-29T03:52:04.912Z,231.55
2023-07-29T03:53:04.946Z,228.28
2023-07-29T03:54:04.935Z,228.83
2023-07-29T03:55:04.957Z,227.88
2023-07-29T03:56:04.967Z,225.55
2023-07-29T03:57:05.105Z,225.10
2023-07-29T03:58:05.046Z,226.04
2023-07-29T03:59:05.128Z,225.01
2023-07-29T04:00:05.105Z,226.66
2023-07-29T04:01:05.194Z,227.17
2023-07-29T04:02:05.202Z,228.95
2023-07-29T04:03:05.338Z,225.80
2023-07-29T04:04:05.352Z,225.45
2023-07-29T04:05:05.399Z,225.30
2023-07-29T04:06:05.371Z,226.82
2023-07-29T04:07:05.406Z,226.31
2023-07-29T04:08:05.468Z,226.36
2023-07-29T04:09:05.521Z,224.88
2023-07-29T04:10:05.569Z,225.40
2023-07-29T04:11:05.584Z,223.83
2023-07-29T04:12:05.646Z,224.98
2023-07-29T04:13:05.657Z,224.24
2023-07-29T04:14:05.714Z,226.03
2023-07-29T04:15:05.746Z,225.64
2023-07-29T04:16:05.928Z,226.63
2023-07-29T04:17:05.789Z,227.62
2023-07-29T04:18:05.906Z,225.90
2023-07-29T04:19:05.863Z,223.83
2023-07-29T04:20:05.903Z,225.69
2023-07-29T04:21:05.909Z,226.77
2023-07-29T04:22:05.938Z,227.35
2023-07-29T04:23:05.957Z,225.87
2023-07-29T04:24:05.977Z,226.14
2023-07-29T04:25:05.992Z,226.21
2023-07-29T04:26:06.048Z,225.37
2023-07-29T04:27:06.049Z,226.47
2023-07-29T04:28:06.201Z,226.12
2023-07-29T04:29:06.121Z,227.50
2023-07-29T04:30:06.119Z,232.31
2023-07-29T04:31:06.168Z,234.00
2023-07-29T04:32:06.137Z,234.78
2023-07-29T04:33:06.175Z,233.66
2023-07-29T04:34:06.152Z,232.77
2023-07-29T04:35:06.166Z,233.39
2023-07-29T04:36:06.171Z,232.09
2023-07-29T04:37:06.172Z,229.70
2023-07-29T04:38:06.169Z,231.94
2023-07-29T04:39:06.282Z,234.01
2023-07-29T04:40:06.206Z,231.75
2023-07-29T04:41:06.229Z,231.29
2023-07-29T04:42:06.216Z,231.00
2023-07-29T04:43:06.224Z,232.62
2023-07-29T04:44:06.231Z,230.77
2023-07-29T04:45:06.272Z,229.00
2023-07-29T04:46:06.375Z,229.48
2023-07-29T04:47:06.335Z,228.54
2023-07-29T04:48:06.396Z,226.40
2023-07-29T04:49:06.369Z,225.73
2023-07-29T04:50:06.410Z,224.30
2023-07-29T04:51:06.460Z,224.19
2023-07-29T04:52:06.476Z,224.56
2023-07-29T04:53:06.514Z,225.30
2023-07-29T04:54:06.574Z,225.92
2023-07-29T04:55:06.608Z,223.27
2023-07-29T04:56:06.619Z,224.04
2023-07-29T04:57:06.633Z,224.05
2023-07-29T04:58:06.643Z,225.15
2023-07-29T04:59:06.624Z,226.08
2023-07-29T05:00:06.622Z,226.99
2023-07-29T05:01:06.688Z,226.70
2023-07-29T05:02:06.677Z,227.95
2023-07-29T05:03:06.696Z,232.15
2023-07-29T05:04:06.697Z,234.61
2023-07-29T05:05:06.690Z,237.47
2023-07-29T05:06:06.737Z,239.82
2023-07-29T05:07:06.755Z,242.57
2023-07-29T05:08:06.784Z,243.80
2023-07-29T05:09:06.810Z,245.86
2023-07-29T05:10:06.813Z,246.45
2023-07-29T05:11:06.847Z,245.98
2023-07-29T05:12:06.839Z,246.08
2023-07-29T05:13:06.876Z,247.40
2023-07-29T05:14:06.882Z,248.59
2023-07-29T05:15:06.928Z,247.36
2023-07-29T05:16:06.971Z,246.23
2023-07-29T05:17:06.959Z,248.51
2023-07-29T05:18:06.965Z,247.30
2023-07-29T05:19:06.964Z,247.12
2023-07-29T05:20:06.988Z,243.85
2023-07-29T05:21:07.004Z,243.77
2023-07-29T05:22:07.031Z,245.33
2023-07-29T05:23:07.038Z,244.69
2023-07-29T05:24:07.038Z,242.90
2023-07-29T05:25:07.084Z,244.41
2023-07-29T05:26:07.112Z,245.02
2023-07-29T05:27:07.120Z,246.93
2023-07-29T05:28:07.174Z,245.05
2023-07-29T05:29:07.164Z,244.83
2023-07-29T05:30:07.211Z,244.78
2023-07-29T05:31:07.243Z,243.96
2023-07-29T05:32:07.280Z,245.45
2023-07-29T05:33:07.381Z,245.93
2023-07-29T05:34:07.373Z,243.60
2023-07-29T05:35:07.370Z,244.49
2023-07-29T05:36:07.407Z,245.77
2023-07-29T05:37:07.485Z,246.56
2023-07-29T05:38:07.516Z,245.53
2023-07-29T05:39:07.477Z,245.08
2023-07-29T05:40:07.507Z,246.93
2023-07-29T05:41:07.506Z,247.37
2023-07-29T05:42:07.548Z,248.49
2023-07-29T05:43:07.518Z,248.38
2023-07-29T05:44:09.850Z,248.35
2023-07-29T05:45:07.518Z,245.18
2023-07-29T05:46:07.563Z,243.21
2023-07-29T05:47:07.571Z,244.93
2023-07-29T05:48:07.591Z,243.24
2023-07-29T05:49:07.488Z,241.61
2023-07-29T05:50:07.511Z,242.31
2023-07-29T05:51:07.501Z,238.79
2023-07-29T05:52:07.508Z,237.10
2023-07-29T05:53:07.480Z,236.15
2023-07-29T05:54:07.481Z,235.49
2023-07-29T05:55:07.480Z,232.75
2023-07-29T05:56:07.489Z,231.57
2023-07-29T05:57:07.447Z,233.50
2023-07-29T05:58:07.463Z,230.79
2023-07-29T05:59:07.469Z,226.64
2023-07-29T06:00:07.449Z,224.28
2023-07-29T06:01:07.533Z,222.64
2023-07-29T06:02:07.426Z,221.81
2023-07-29T06:03:07.550Z,221.46
2023-07-29T06:04:07.461Z,220.22
2023-07-29T06:05:07.409Z,220.99
2023-07-29T06:06:07.416Z,219.25
2023-07-29T06:07:07.410Z,218.40
2023-07-29T06:08:07.400Z,219.85
2023-07-29T06:09:07.388Z,216.65
2023-07-29T06:10:07.393Z,215.26
2023-07-29T06:11:07.384Z,214.01
2023-07-29T06:12:07.400Z,212.98
2023-07-29T06:13:07.362Z,212.24
2023-07-29T06:14:07.363Z,210.59
2023-07-29T06:15:07.419Z,210.47
2023-07-29T06:16:07.323Z,209.99
2023-07-29T06:17:07.436Z,210.01
2023-07-29T06:18:07.325Z,210.05
2023-07-29T06:19:07.319Z,209.86
2023-07-29T06:20:07.335Z,208.90
2023-07-29T06:21:07.328Z,209.52
2023-07-29T06:22:07.300Z,210.64
2023-07-29T06:23:07.301Z,210.26
2023-07-29T06:24:09.946Z,213.14
2023-07-29T06:25:07.400Z,213.29
2023-07-29T06:26:07.275Z,213.41
2023-07-29T06:27:07.285Z,214.26
2023-07-29T06:28:07.287Z,215.82
2023-07-29T06:29:07.254Z,218.57
2023-07-29T06:30:07.258Z,218.32
2023-07-29T06:31:07.296Z,218.34
2023-07-29T06:32:07.256Z,220.59
2023-07-29T06:33:07.275Z,220.25
2023-07-29T06:34:07.266Z,220.49
2023-07-29T06:35:07.246Z,222.76
2023-07-29T06:36:07.220Z,224.23
2023-07-29T06:37:07.235Z,226.48
2023-07-29T06:38:07.239Z,227.14
2023-07-29T06:39:07.198Z,227.89
2023-07-29T06:40:07.215Z,228.66
2023-07-29T06:41:07.194Z,228.36
2023-07-29T06:42:07.204Z,228.24
2023-07-29T06:43:07.200Z,228.04
2023-07-29T06:44:07.183Z,227.80
2023-07-29T06:45:07.192Z,229.12
2023-07-29T06:46:07.201Z,228.06
2023-07-29T06:47:07.153Z,230.89
2023-07-29T06:48:07.208Z,231.50
2023-07-29T06:49:07.139Z,232.45
2023-07-29T06:50:07.132Z,233.40
2023-07-29T06:51:07.132Z,236.01
2023-07-29T06:52:07.101Z,234.53
2023-07-29T06:53:07.129Z,235.98
2023-07-29T06:54:07.192Z,233.85
2023-07-29T06:55:07.229Z,237.62
2023-07-29T06:56:07.294Z,237.07
2023-07-29T06:57:07.341Z,240.23
2023-07-29T06:58:07.430Z,240.47
2023-07-29T06:59:07.479Z,240.89
2023-07-29T07:00:07.526Z,241.29
2023-07-29T07:01:07.579Z,241.88
2023-07-29T07:02:07.646Z,237.66
2023-07-29T07:03:07.775Z,241.19
2023-07-29T07:04:07.788Z,241.85
2023-07-29T07:05:07.825Z,245.25
2023-07-29T07:06:07.882Z,243.90
2023-07-29T07:07:07.993Z,242.54
2023-07-29T07:08:08.020Z,238.21
2023-07-29T07:09:08.083Z,239.86
2023-07-29T07:10:08.164Z,239.38
2023-07-29T07:11:08.182Z,239.22
2023-07-29T07:12:08.250Z,238.45
2023-07-29T07:13:08.322Z,240.75
2023-07-29T07:14:08.393Z,239.40
2023-07-29T07:15:08.408Z,237.71
2023-07-29T07:16:08.449Z,236.50
2023-07-29T07:17:10.734Z,238.11
2023-07-29T07:18:08.423Z,240.16
2023-07-29T07:19:08.426Z,240.03
2023-07-29T07:20:08.412Z,237.35
2023-07-29T07:21:08.429Z,236.57
2023-07-29T07:22:08.404Z,235.30
2023-07-29T07:23:08.382Z,237.86
2023-07-29T07:24:08.388Z,239.35
2023-07-29T07:25:09.071Z,237.79
2023-07-29T07:26:08.378Z,236.86
2023-07-29T07:27:08.375Z,234.20
2023-07-29T07:28:08.400Z,237.67
2023-07-29T07:29:08.358Z,236.85
2023-07-29T07:30:08.384Z,234.60
2023-07-29T07:31:08.337Z,229.35
2023-07-29T07:32:08.435Z,229.96
2023-07-29T07:33:08.371Z,227.09
2023-07-29T07:34:08.363Z,225.18
2023-07-29T07:35:08.330Z,222.69
2023-07-29T07:36:08.308Z,224.09
2023-07-29T07:37:08.320Z,224.16
2023-07-29T07:38:08.296Z,224.77
2023-07-29T07:39:08.307Z,224.47
2023-07-29T07:40:08.284Z,224.43
2023-07-29T07:41:08.284Z,222.56
2023-07-29T07:42:08.302Z,223.25
2023-07-29T07:43:08.280Z,224.16
2023-07-29T07:44:08.269Z,223.29
2023-07-29T07:45:08.260Z,219.24
2023-07-29T07:46:08.258Z,220.87
2023-07-29T07:47:08.247Z,224.19
2023-07-29T07:48:08.260Z,224.08
2023-07-29T07:49:08.239Z,227.38
2023-07-29T07:50:08.267Z,232.50
2023-07-29T07:51:08.219Z,230.48
2023-07-29T07:52:08.212Z,234.15
2023-07-29T07:53:08.216Z,236.72
2023-07-29T07:54:08.956Z,236.21
2023-07-29T07:55:08.187Z,237.21
2023-07-29T07:56:08.216Z,241.25
2023-07-29T07:57:08.198Z,241.64
2023-07-29T07:58:08.193Z,245.41
2023-07-29T07:59:08.218Z,244.17
2023-07-29T08:00:08.246Z,245.41
2023-07-29T08:01:08.292Z,241.47
2023-07-29T08:02:08.330Z,241.01
2023-07-29T08:03:08.389Z,241.41
2023-07-29T08:04:08.456Z,240.34
2023-07-29T08:05:08.427Z,242.43
2023-07-29T08:06:10.936Z,242.37
2023-07-29T08:07:08.416Z,241.54
2023-07-29T08:08:08.426Z,243.43
2023-07-29T08:09:08.412Z,245.63
2023-07-29T08:10:08.437Z,243.76
2023-07-29T08:11:08.389Z,242.30
2023-07-29T08:12:08.407Z,240.99
2023-07-29T08:13:08.373Z,244.60
2023-07-29T08:14:08.407Z,243.09
2023-07-29T08:15:08.363Z,238.87
2023-07-29T08:16:08.432Z,237.38
2023-07-29T08:17:08.349Z,236.42
2023-07-29T08:18:08.374Z,229.94
2023-07-29T08:19:08.388Z,233.61
2023-07-29T08:20:08.355Z,225.95
2023-07-29T08:21:08.362Z,224.23
2023-07-29T08:22:08.343Z,218.12
2023-07-29T08:23:08.369Z,216.35
2023-07-29T08:24:08.368Z,213.28
2023-07-29T08:25:08.337Z,210.68
2023-07-29T08:26:08.984Z,208.92
2023-07-29T08:27:08.324Z,213.96
2023-07-29T08:28:08.337Z,215.42
2023-07-29T08:29:08.320Z,219.07
2023-07-29T08:30:08.354Z,219.43
2023-07-29T08:31:08.351Z,217.08
2023-07-29T08:32:08.296Z,218.20
2023-07-29T08:33:08.302Z,214.08
2023-07-29T08:34:08.301Z,211.77
2023-07-29T08:35:08.279Z,210.89
2023-07-29T08:36:08.248Z,211.14
2023-07-29T08:37:08.264Z,210.50
2023-07-29T08:38:08.223Z,214.19
2023-07-29T08:39:08.373Z,216.04
2023-07-29T08:40:08.229Z,217.12
2023-07-29T08:41:08.211Z,214.51
2023-07-29T08:42:08.242Z,215.87
2023-07-29T08:43:08.233Z,219.16
2023-07-29T08:44:09.687Z,218.84
2023-07-29T08:45:08.235Z,218.97
2023-07-29T08:46:08.182Z,219.03
2023-07-29T08:47:08.292Z,218.53
2023-07-29T08:48:08.224Z,215.91
2023-07-29T08:49:08.209Z,214.11
2023-07-29T08:50:08.188Z,216.36
2023-07-29T08:51:08.168Z,214.85
2023-07-29T08:52:08.174Z,214.67
2023-07-29T08:53:08.141Z,214.74
2023-07-29T08:54:08.139Z,216.15
2023-07-29T08:55:08.146Z,217.28
2023-07-29T08:56:08.147Z,214.54
2023-07-29T08:57:08.150Z,213.07
2023-07-29T08:58:08.130Z,215.74
2023-07-29T08:59:08.117Z,217.63
2023-07-29T09:00:08.110Z,220.12
2023-07-29T09:01:08.209Z,220.92
2023-07-29T09:02:08.118Z,218.13
2023-07-29T09:03:08.174Z,219.10
2023-07-29T09:04:08.088Z,221.06
2023-07-29T09:05:08.130Z,221.74
2023-07-29T09:06:08.076Z,221.86
2023-07-29T09:07:08.068Z,222.21
2023-07-29T09:08:08.068Z,222.18
2023-07-29T09:09:08.051Z,220.51
2023-07-29T09:10:08.051Z,214.69
2023-07-29T09:11:08.025Z,212.19
2023-07-29T09:12:08.044Z,211.06
2023-07-29T09:13:08.054Z,210.57
2023-07-29T09:14:08.021Z,211.35
2023-07-29T09:15:08.019Z,209.79
2023-07-29T09:16:08.014Z,209.84
2023-07-29T09:17:08.010Z,211.90
2023-07-29T09:18:08.036Z,210.65
2023-07-29T09:19:07.965Z,209.60
2023-07-29T09:20:07.985Z,207.03
2023-07-29T09:21:07.967Z,207.58
2023-07-29T09:22:07.972Z,205.31
2023-07-29T09:23:07.941Z,209.90
2023-07-29T09:24:07.959Z,208.29
2023-07-29T09:25:07.950Z,201.69
2023-07-29T09:26:07.964Z,201.29
2023-07-29T09:27:07.930Z,200.31
2023-07-29T09:28:07.975Z,199.57
2023-07-29T09:29:07.917Z,200.50
2023-07-29T09:30:07.973Z,194.96
2023-07-29T09:31:07.928Z,196.28
2023-07-29T09:32:07.901Z,198.28
2023-07-29T09:33:07.923Z,201.28
2023-07-29T09:34:07.900Z,194.21
2023-07-29T09:35:07.931Z,189.18
2023-07-29T09:36:07.874Z,191.95
2023-07-29T09:37:07.870Z,191.50
2023-07-29T09:38:07.863Z,193.09
2023-07-29T09:39:07.865Z,189.72
2023-07-29T09:40:07.931Z,186.35
2023-07-29T09:41:07.994Z,181.72
2023-07-29T09:42:08.047Z,177.71
2023-07-29T09:43:08.090Z,182.04
2023-07-29T09:44:08.140Z,179.75
2023-07-29T09:45:08.201Z,180.67
2023-07-29T09:46:08.371Z,178.88
2023-07-29T09:47:08.350Z,179.08
2023-07-29T09:48:08.442Z,177.77
2023-07-29T09:49:08.449Z,179.31
2023-07-29T09:50:08.500Z,181.25
2023-07-29T09:51:08.578Z,178.30
2023-07-29T09:52:08.610Z,179.23
2023-07-29T09:53:08.663Z,177.62
2023-07-29T09:54:08.702Z,177.42
2023-07-29T09:55:08.800Z,178.59
2023-07-29T09:56:08.845Z,178.00
2023-07-29T09:57:08.869Z,179.21
2023-07-29T09:58:08.934Z,176.52
2023-07-29T09:59:08.981Z,177.51
2023-07-29T10:00:09.040Z,181.18
2023-07-29T10:01:09.119Z,178.98
2023-07-29T10:02:09.214Z,178.47
2023-07-29T10:03:09.356Z,180.48
2023-07-29T10:04:11.909Z,179.07
2023-07-29T10:05:09.247Z,179.09
2023-07-29T10:06:09.236Z,179.24
2023-07-29T10:07:09.223Z,179.89
2023-07-29T10:08:09.211Z,180.80
2023-07-29T10:09:09.233Z,178.79
2023-07-29T10:10:09.230Z,178.88
2023-07-29T10:11:09.202Z,176.93
2023-07-29T10:12:09.201Z,169.73
2023-07-29T10:13:09.183Z,169.91
2023-07-29T10:14:09.425Z,167.96
2023-07-29T10:15:09.169Z,162.94
2023-07-29T10:16:09.218Z,163.62
2023-07-29T10:17:09.153Z,168.64
2023-07-29T10:18:09.172Z,162.16
2023-07-29T10:19:09.143Z,162.36
2023-07-29T10:20:09.163Z,157.08
2023-07-29T10:21:09.175Z,156.72
2023-07-29T10:22:09.144Z,155.41
2023-07-29T10:23:09.191Z,156.13
2023-07-29T10:24:09.128Z,147.96
2023-07-29T10:25:09.105Z,149.66
2023-07-29T10:26:09.152Z,148.99
2023-07-29T10:27:09.122Z,146.65
2023-07-29T10:28:09.174Z,147.07
2023-07-29T10:29:09.111Z,149.65
2023-07-29T10:30:09.086Z,150.19
2023-07-29T10:31:09.130Z,150.34
2023-07-29T10:32:09.062Z,147.65
2023-07-29T10:33:09.104Z,148.86
2023-07-29T10:34:09.072Z,150.92
2023-07-29T10:35:09.040Z,148.36
2023-07-29T10:36:09.059Z,150.39
2023-07-29T10:37:09.042Z,153.77
2023-07-29T10:38:09.036Z,154.44
2023-07-29T10:39:09.042Z,154.07
2023-07-29T10:40:09.017Z,156.20
2023-07-29T10:41:09.017Z,153.11
2023-07-29T10:42:09.021Z,150.72
2023-07-29T10:43:08.995Z,161.38
2023-07-29T10:44:09.016Z,160.59
2023-07-29T10:45:09.000Z,160.41
2023-07-29T10:46:16.345Z,156.57
2023-07-29T10:47:09.981Z,156.65
2023-07-29T10:48:09.015Z,156.88
2023-07-29T10:49:08.978Z,148.16
2023-07-29T10:50:08.976Z,147.51
2023-07-29T10:51:08.942Z,143.33
2023-07-29T10:52:08.965Z,134.98
2023-07-29T10:53:08.938Z,127.77
2023-07-29T10:54:08.944Z,130.95
2023-07-29T10:55:08.944Z,126.98
2023-07-29T10:56:08.929Z,117.83
2023-07-29T10:57:08.912Z,112.52
2023-07-29T10:58:08.950Z,111.14
2023-07-29T10:59:08.982Z,106.95
2023-07-29T11:00:09.047Z,100.69
2023-07-29T11:01:09.087Z,105.20
2023-07-29T11:02:09.094Z,102.92
2023-07-29T11:03:09.183Z,98.34
2023-07-29T11:04:09.168Z,101.10
2023-07-29T11:05:09.311Z,97.47
2023-07-29T11:06:09.215Z,99.34
2023-07-29T11:07:09.245Z,94.16
2023-07-29T11:08:09.292Z,97.10
2023-07-29T11:09:09.312Z,96.08
2023-07-29T11:10:09.356Z,86.49
2023-07-29T11:11:09.401Z,101.69
2023-07-29T11:12:09.427Z,97.78
2023-07-29T11:13:09.446Z,94.37
2023-07-29T11:14:09.474Z,92.05
2023-07-29T11:15:09.551Z,90.20
2023-07-29T11:16:09.633Z,78.06
2023-07-29T11:17:11.610Z,85.28
2023-07-29T11:18:09.604Z,76.82
2023-07-29T11:19:09.634Z,69.73
2023-07-29T11:20:09.670Z,65.84
2023-07-29T11:21:09.679Z,67.15
2023-07-29T11:22:09.720Z,61.06
2023-07-29T11:23:09.740Z,67.09
2023-07-29T11:24:09.761Z,70.69
2023-07-29T11:25:09.808Z,67.29
2023-07-29T11:26:09.841Z,62.51
2023-07-29T11:27:09.858Z,66.71
2023-07-29T11:28:09.939Z,70.99
2023-07-29T11:29:09.938Z,63.27
2023-07-29T11:30:09.957Z,67.51
2023-07-29T11:31:10.029Z,66.86
2023-07-29T11:32:10.038Z,75.18
2023-07-29T11:33:10.133Z,80.34
2023-07-29T11:34:10.079Z,74.62
2023-07-29T11:35:10.106Z,82.99
2023-07-29T11:36:10.136Z,90.11
2023-07-29T11:37:10.208Z,84.81
2023-07-29T11:38:10.191Z,75.36
2023-07-29T11:39:10.228Z,69.77
2023-07-29T11:40:10.267Z,64.37
2023-07-29T11:41:10.301Z,61.36
2023-07-29T11:42:10.335Z,62.75
2023-07-29T11:43:10.358Z,74.88
2023-07-29T11:44:10.385Z,70.36
2023-07-29T11:45:10.430Z,76.91
2023-07-29T11:46:10.444Z,70.46
2023-07-29T11:47:10.511Z,68.12
2023-07-29T11:48:10.514Z,71.44
2023-07-29T11:49:10.529Z,74.97
2023-07-29T11:50:10.560Z,87.32
2023-07-29T11:51:10.607Z,78.86
2023-07-29T11:52:10.622Z,79.45
2023-07-29T11:53:10.653Z,92.83
2023-07-29T11:54:10.675Z,106.19
2023-07-29T11:55:10.715Z,100.81
2023-07-29T11:56:10.714Z,79.69
2023-07-29T11:57:10.793Z,67.15
2023-07-29T11:58:10.795Z,80.54
2023-07-29T11:59:10.819Z,94.16
2023-07-29T12:00:10.832Z,99.66
2023-07-29T12:01:10.911Z,80.07
2023-07-29T12:02:10.916Z,76.75
2023-07-29T12:03:11.036Z,82.07
2023-07-29T12:04:11.012Z,119.74
2023-07-29T12:05:10.968Z,123.61
2023-07-29T12:06:11.013Z,117.61
2023-07-29T12:07:11.011Z,110.27
2023-07-29T12:08:11.051Z,90.46
2023-07-29T12:09:11.072Z,87.48
2023-07-29T12:10:11.138Z,82.27
2023-07-29T12:11:11.126Z,116.75
2023-07-29T12:12:11.165Z,105.82
2023-07-29T12:13:11.195Z,116.80
2023-07-29T12:14:11.198Z,115.36
2023-07-29T12:15:11.264Z,109.30
2023-07-29T12:16:11.259Z,116.02
2023-07-29T12:17:11.380Z,143.74
2023-07-29T12:18:11.450Z,151.57
2023-07-29T12:19:11.374Z,128.02
2023-07-29T12:20:11.382Z,123.09
2023-07-29T12:21:11.388Z,144.94
2023-07-29T12:22:11.413Z,141.50
2023-07-29T12:23:11.472Z,149.54
2023-07-29T12:24:11.475Z,146.36
2023-07-29T12:25:11.492Z,131.16
2023-07-29T12:26:11.541Z,154.90
2023-07-29T12:27:11.558Z,152.66
2023-07-29T12:28:11.653Z,138.36
2023-07-29T12:29:11.598Z,148.84
2023-07-29T12:30:11.619Z,154.62
2023-07-29T12:31:11.648Z,161.19